Terminal Aerodrome Forecast
Issued by NWS

Home | Current Version | Previous Version | Text Only | Print | Product List | Glossary On
Versions: 1 2 3 4 5 6 7 8 9 10 11 12 13 14 15 16 17 18 19 20 21 22 23 24 25 26 27
000
FTUS44 KFWD 301100
TAFAFW
TAF
KAFW 301138Z 3012/3112 16009KT P6SM VCSH SCT060 OVC120
     FM302000 15014KT P6SM SCT060 OVC120
     FM310400 15014KT P6SM VCSH OVC060=

USA.gov is the U.S. government's official web portal to all federal, state and local government web resources and services.